sensor_id;sensor_type;location;lat;lon;timestamp;temperature;humidity
439;DHT22;206;48.782;9.252;2022-11-04T00:01:15;13.20;66.90
439;DHT22;206;48.782;9.252;2022-11-04T00:03:41;13.20;66.10
439;DHT22;206;48.782;9.252;2022-11-04T00:06:07;13.20;65.90
439;DHT22;206;48.782;9.252;2022-11-04T00:08:33;13.20;65.50
439;DHT22;206;48.782;9.252;2022-11-04T00:10:59;13.20;63.60
439;DHT22;206;48.782;9.252;2022-11-04T00:13:44;13.10;63.60
439;DHT22;206;48.782;9.252;2022-11-04T00:16:10;13.10;62.60
439;DHT22;206;48.782;9.252;2022-11-04T00:18:54;13.10;62.20
439;DHT22;206;48.782;9.252;2022-11-04T00:21:20;13.10;62.90
439;DHT22;206;48.782;9.252;2022-11-04T00:24:05;13.10;62.00
439;DHT22;206;48.782;9.252;2022-11-04T00:26:49;13.20;62.80
439;DHT22;206;48.782;9.252;2022-11-04T00:29:33;13.10;60.10
439;DHT22;206;48.782;9.252;2022-11-04T00:31:58;13.10;60.80
439;DHT22;206;48.782;9.252;2022-11-04T00:34:42;13.10;61.60
439;DHT22;206;48.782;9.252;2022-11-04T00:37:08;13.10;62.20
439;DHT22;206;48.782;9.252;2022-11-04T00:39:33;13.10;60.80
439;DHT22;206;48.782;9.252;2022-11-04T00:41:59;13.10;60.40
439;DHT22;206;48.782;9.252;2022-11-04T00:44:24;13.10;60.80
439;DHT22;206;48.782;9.252;2022-11-04T00:46:50;13.10;60.80
439;DHT22;206;48.782;9.252;2022-11-04T00:49:16;13.10;60.80
439;DHT22;206;48.782;9.252;2022-11-04T00:51:41;13.10;60.30
439;DHT22;206;48.782;9.252;2022-11-04T00:54:07;13.10;59.10
439;DHT22;206;48.782;9.252;2022-11-04T00:56:32;13.10;58.50
439;DHT22;206;48.782;9.252;2022-11-04T00:59:01;13.10;59.10
439;DHT22;206;48.782;9.252;2022-11-04T01:01:27;13.10;58.90
439;DHT22;206;48.782;9.252;2022-11-04T01:03:53;13.10;58.40
439;DHT22;206;48.782;9.252;2022-11-04T01:06:20;13.10;57.70
439;DHT22;206;48.782;9.252;2022-11-04T01:08:47;13.10;58.00
439;DHT22;206;48.782;9.252;2022-11-04T01:11:13;13.10;58.30
439;DHT22;206;48.782;9.252;2022-11-04T01:13:39;13.10;58.10
439;DHT22;206;48.782;9.252;2022-11-04T01:16:07;13.00;58.30
439;DHT22;206;48.782;9.252;2022-11-04T01:18:34;13.00;58.40
439;DHT22;206;48.782;9.252;2022-11-04T01:21:01;13.00;57.90
439;DHT22;206;48.782;9.252;2022-11-04T01:23:26;13.00;58.10
439;DHT22;206;48.782;9.252;2022-11-04T01:25:52;13.00;59.00
439;DHT22;206;48.782;9.252;2022-11-04T01:28:17;13.00;58.50
439;DHT22;206;48.782;9.252;2022-11-04T01:30:43;13.00;58.70
439;DHT22;206;48.782;9.252;2022-11-04T01:33:08;13.00;58.60
439;DHT22;206;48.782;9.252;2022-11-04T01:35:34;13.10;58.10
439;DHT22;206;48.782;9.252;2022-11-04T01:37:59;13.10;57.90
439;DHT22;206;48.782;9.252;2022-11-04T01:40:25;13.10;58.20
439;DHT22;206;48.782;9.252;2022-11-04T01:42:51;13.20;58.50
439;DHT22;206;48.782;9.252;2022-11-04T01:45:19;13.20;59.00
439;DHT22;206;48.782;9.252;2022-11-04T01:47:49;13.20;59.00
439;DHT22;206;48.782;9.252;2022-11-04T01:50:24;13.10;58.80
439;DHT22;206;48.782;9.252;2022-11-04T01:53:02;13.10;59.00
439;DHT22;206;48.782;9.252;2022-11-04T01:55:33;13.10;58.50
439;DHT22;206;48.782;9.252;2022-11-04T01:58:03;13.00;58.20
439;DHT22;206;48.782;9.252;2022-11-04T02:00:31;13.00;58.20
439;DHT22;206;48.782;9.252;2022-11-04T02:03:13;13.00;58.90
439;DHT22;206;48.782;9.252;2022-11-04T02:05:41;12.90;59.80
439;DHT22;206;48.782;9.252;2022-11-04T02:08:08;12.90;59.80
439;DHT22;206;48.782;9.252;2022-11-04T02:10:34;13.00;58.90
439;DHT22;206;48.782;9.252;2022-11-04T02:13:03;12.90;58.80
439;DHT22;206;48.782;9.252;2022-11-04T02:15:59;12.90;58.10
439;DHT22;206;48.782;9.252;2022-11-04T02:18:50;12.90;58.70
439;DHT22;206;48.782;9.252;2022-11-04T02:38:01;12.70;59.30
439;DHT22;206;48.782;9.252;2022-11-04T02:43:48;12.70;58.30
439;DHT22;206;48.782;9.252;2022-11-04T02:46:19;12.60;57.90
439;DHT22;206;48.782;9.252;2022-11-04T02:48:55;12.60;57.20
439;DHT22;206;48.782;9.252;2022-11-04T02:51:27;12.60;55.60
439;DHT22;206;48.782;9.252;2022-11-04T02:55:03;12.60;56.10
439;DHT22;206;48.782;9.252;2022-11-04T02:56:59;12.60;56.10
439;DHT22;206;48.782;9.252;2022-11-04T02:59:38;12.50;55.60
439;DHT22;206;48.782;9.252;2022-11-04T03:02:08;12.50;54.60
439;DHT22;206;48.782;9.252;2022-11-04T03:04:38;12.50;53.50
439;DHT22;206;48.782;9.252;2022-11-04T03:07:08;12.50;53.10
439;DHT22;206;48.782;9.252;2022-11-04T03:09:38;12.50;53.20
439;DHT22;206;48.782;9.252;2022-11-04T03:12:09;12.50;53.40
439;DHT22;206;48.782;9.252;2022-11-04T03:14:42;12.50;53.80
439;DHT22;206;48.782;9.252;2022-11-04T03:17:21;12.50;54.20
439;DHT22;206;48.782;9.252;2022-11-04T03:19:57;12.40;53.30
439;DHT22;206;48.782;9.252;2022-11-04T03:22:28;12.40;52.90
439;DHT22;206;48.782;9.252;2022-11-04T03:24:55;12.40;52.20
439;DHT22;206;48.782;9.252;2022-11-04T03:27:26;12.40;52.50
439;DHT22;206;48.782;9.252;2022-11-04T03:30:04;12.30;52.70
439;DHT22;206;48.782;9.252;2022-11-04T03:35:04;12.30;53.40
439;DHT22;206;48.782;9.252;2022-11-04T03:37:31;12.30;54.10
439;DHT22;206;48.782;9.252;2022-11-04T03:39:57;12.20;55.30
439;DHT22;206;48.782;9.252;2022-11-04T03:42:23;12.20;56.20
439;DHT22;206;48.782;9.252;2022-11-04T03:44:51;12.20;56.40
439;DHT22;206;48.782;9.252;2022-11-04T03:47:23;12.20;56.60
439;DHT22;206;48.782;9.252;2022-11-04T03:49:51;12.20;57.20
439;DHT22;206;48.782;9.252;2022-11-04T03:52:18;12.20;57.70
439;DHT22;206;48.782;9.252;2022-11-04T03:54:45;12.20;57.70
439;DHT22;206;48.782;9.252;2022-11-04T03:57:51;12.10;57.50
439;DHT22;206;48.782;9.252;2022-11-04T04:00:17;12.10;58.70
439;DHT22;206;48.782;9.252;2022-11-04T04:02:58;12.00;60.60
439;DHT22;206;48.782;9.252;2022-11-04T04:05:42;11.90;62.80
439;DHT22;206;48.782;9.252;2022-11-04T04:08:37;11.90;63.30
439;DHT22;206;48.782;9.252;2022-11-04T04:11:20;11.80;64.00
439;DHT22;206;48.782;9.252;2022-11-04T04:13:55;11.80;64.60
439;DHT22;206;48.782;9.252;2022-11-04T04:16:32;11.70;66.00
439;DHT22;206;48.782;9.252;2022-11-04T04:19:20;11.70;67.30
439;DHT22;206;48.782;9.252;2022-11-04T04:21:58;11.70;68.50
439;DHT22;206;48.782;9.252;2022-11-04T04:24:33;11.70;68.30
439;DHT22;206;48.782;9.252;2022-11-04T04:27:19;11.70;69.50
439;DHT22;206;48.782;9.252;2022-11-04T04:30:14;11.70;69.80
439;DHT22;206;48.782;9.252;2022-11-04T04:32:45;11.60;70.80
439;DHT22;206;48.782;9.252;2022-11-04T04:35:12;11.50;71.60
439;DHT22;206;48.782;9.252;2022-11-04T04:38:00;11.40;71.10
439;DHT22;206;48.782;9.252;2022-11-04T04:41:01;11.40;72.10
439;DHT22;206;48.782;9.252;2022-11-04T04:43:47;11.40;71.70
439;DHT22;206;48.782;9.252;2022-11-04T04:46:31;11.30;71.70
439;DHT22;206;48.782;9.252;2022-11-04T04:49:08;11.30;72.30
439;DHT22;206;48.782;9.252;2022-11-04T04:51:38;11.20;73.30
439;DHT22;206;48.782;9.252;2022-11-04T04:54:05;11.20;73.90
439;DHT22;206;48.782;9.252;2022-11-04T04:56:30;11.20;73.90
439;DHT22;206;48.782;9.252;2022-11-04T04:58:56;11.20;73.90
439;DHT22;206;48.782;9.252;2022-11-04T05:01:22;11.20;73.90
439;DHT22;206;48.782;9.252;2022-11-04T05:03:47;11.20;72.10
439;DHT22;206;48.782;9.252;2022-11-04T05:06:13;11.10;72.00
439;DHT22;206;48.782;9.252;2022-11-04T05:08:38;11.20;71.60
439;DHT22;206;48.782;9.252;2022-11-04T05:11:04;11.20;70.60
439;DHT22;206;48.782;9.252;2022-11-04T05:13:30;11.20;68.60
439;DHT22;206;48.782;9.252;2022-11-04T05:15:56;11.20;68.30
439;DHT22;206;48.782;9.252;2022-11-04T05:18:27;11.20;66.90
439;DHT22;206;48.782;9.252;2022-11-04T05:20:52;11.20;68.10
439;DHT22;206;48.782;9.252;2022-11-04T05:23:18;11.20;66.50
439;DHT22;206;48.782;9.252;2022-11-04T05:25:43;11.20;66.60
439;DHT22;206;48.782;9.252;2022-11-04T05:28:09;11.10;67.70
439;DHT22;206;48.782;9.252;2022-11-04T05:30:35;11.10;66.90
439;DHT22;206;48.782;9.252;2022-11-04T05:33:01;11.00;66.90
439;DHT22;206;48.782;9.252;2022-11-04T05:35:26;11.00;67.30
439;DHT22;206;48.782;9.252;2022-11-04T05:37:54;11.00;66.80
439;DHT22;206;48.782;9.252;2022-11-04T05:40:20;11.00;66.60
439;DHT22;206;48.782;9.252;2022-11-04T05:42:46;11.00;67.90
439;DHT22;206;48.782;9.252;2022-11-04T05:45:11;10.90;69.20
439;DHT22;206;48.782;9.252;2022-11-04T05:47:37;10.90;71.00
439;DHT22;206;48.782;9.252;2022-11-04T05:50:03;10.90;71.70
439;DHT22;206;48.782;9.252;2022-11-04T05:52:29;10.80;71.60
439;DHT22;206;48.782;9.252;2022-11-04T05:54:54;10.80;71.70
439;DHT22;206;48.782;9.252;2022-11-04T05:57:20;10.80;72.20
439;DHT22;206;48.782;9.252;2022-11-04T05:59:45;10.70;71.50
439;DHT22;206;48.782;9.252;2022-11-04T06:02:11;10.70;71.50
439;DHT22;206;48.782;9.252;2022-11-04T06:04:37;10.70;70.90
439;DHT22;206;48.782;9.252;2022-11-04T06:07:02;10.70;71.30
439;DHT22;206;48.782;9.252;2022-11-04T06:09:28;10.70;71.60
439;DHT22;206;48.782;9.252;2022-11-04T06:12:07;10.60;71.40
439;DHT22;206;48.782;9.252;2022-11-04T06:14:34;10.50;71.40
439;DHT22;206;48.782;9.252;2022-11-04T06:16:59;10.50;71.20
439;DHT22;206;48.782;9.252;2022-11-04T06:19:25;10.50;71.20
439;DHT22;206;48.782;9.252;2022-11-04T06:21:51;10.50;69.40
439;DHT22;206;48.782;9.252;2022-11-04T06:24:17;10.60;69.60
439;DHT22;206;48.782;9.252;2022-11-04T06:26:42;10.60;67.60
439;DHT22;206;48.782;9.252;2022-11-04T06:29:08;10.60;65.90
439;DHT22;206;48.782;9.252;2022-11-04T06:31:34;10.60;64.90
439;DHT22;206;48.782;9.252;2022-11-04T06:34:00;10.60;65.10
439;DHT22;206;48.782;9.252;2022-11-04T06:36:25;10.60;66.40
439;DHT22;206;48.782;9.252;2022-11-04T06:38:51;10.70;67.20
439;DHT22;206;48.782;9.252;2022-11-04T06:41:17;10.70;68.10
439;DHT22;206;48.782;9.252;2022-11-04T06:43:43;10.70;68.50
439;DHT22;206;48.782;9.252;2022-11-04T06:46:33;10.80;68.30
439;DHT22;206;48.782;9.252;2022-11-04T06:49:00;10.80;68.60
439;DHT22;206;48.782;9.252;2022-11-04T06:51:26;10.80;68.80
439;DHT22;206;48.782;9.252;2022-11-04T06:53:52;10.80;69.00
439;DHT22;206;48.782;9.252;2022-11-04T06:56:17;10.80;69.40
439;DHT22;206;48.782;9.252;2022-11-04T06:58:46;10.80;69.50
439;DHT22;206;48.782;9.252;2022-11-04T07:01:13;10.80;70.30
439;DHT22;206;48.782;9.252;2022-11-04T07:03:39;10.90;70.70
439;DHT22;206;48.782;9.252;2022-11-04T07:06:06;10.90;71.40
439;DHT22;206;48.782;9.252;2022-11-04T07:08:31;10.90;71.20
439;DHT22;206;48.782;9.252;2022-11-04T07:10:57;10.90;71.00
439;DHT22;206;48.782;9.252;2022-11-04T07:13:22;10.90;70.90
439;DHT22;206;48.782;9.252;2022-11-04T07:15:48;10.90;70.80
439;DHT22;206;48.782;9.252;2022-11-04T07:18:14;10.90;71.00
439;DHT22;206;48.782;9.252;2022-11-04T07:20:39;10.80;71.40
439;DHT22;206;48.782;9.252;2022-11-04T07:23:05;10.90;71.40
439;DHT22;206;48.782;9.252;2022-11-04T07:25:31;10.90;71.40
439;DHT22;206;48.782;9.252;2022-11-04T07:27:56;10.90;71.70
439;DHT22;206;48.782;9.252;2022-11-04T07:30:22;10.90;72.20
439;DHT22;206;48.782;9.252;2022-11-04T07:32:48;11.00;72.60
439;DHT22;206;48.782;9.252;2022-11-04T07:35:13;11.00;71.70
439;DHT22;206;48.782;9.252;2022-11-04T07:37:39;11.10;70.60
439;DHT22;206;48.782;9.252;2022-11-04T07:40:05;11.10;70.40
439;DHT22;206;48.782;9.252;2022-11-04T07:42:31;11.10;70.30
439;DHT22;206;48.782;9.252;2022-11-04T07:44:57;11.10;69.90
439;DHT22;206;48.782;9.252;2022-11-04T07:47:23;11.20;70.00
439;DHT22;206;48.782;9.252;2022-11-04T07:49:48;11.20;70.20
439;DHT22;206;48.782;9.252;2022-11-04T07:52:14;11.30;70.10
439;DHT22;206;48.782;9.252;2022-11-04T07:54:39;11.40;69.20
439;DHT22;206;48.782;9.252;2022-11-04T07:57:05;11.40;69.20
439;DHT22;206;48.782;9.252;2022-11-04T07:59:31;11.50;69.30
439;DHT22;206;48.782;9.252;2022-11-04T08:01:56;11.60;67.30
439;DHT22;206;48.782;9.252;2022-11-04T08:04:22;11.60;66.80
439;DHT22;206;48.782;9.252;2022-11-04T08:06:47;11.70;67.00
439;DHT22;206;48.782;9.252;2022-11-04T08:09:13;11.70;65.40
439;DHT22;206;48.782;9.252;2022-11-04T08:11:39;11.80;65.30
439;DHT22;206;48.782;9.252;2022-11-04T08:14:04;11.90;65.40
439;DHT22;206;48.782;9.252;2022-11-04T08:16:30;12.00;64.80
439;DHT22;206;48.782;9.252;2022-11-04T08:18:56;12.10;64.30
439;DHT22;206;48.782;9.252;2022-11-04T08:21:29;12.20;63.70
439;DHT22;206;48.782;9.252;2022-11-04T08:23:55;12.30;62.60
439;DHT22;206;48.782;9.252;2022-11-04T08:26:21;12.50;62.30
439;DHT22;206;48.782;9.252;2022-11-04T08:28:50;12.60;61.90
439;DHT22;206;48.782;9.252;2022-11-04T08:31:24;12.80;59.00
439;DHT22;206;48.782;9.252;2022-11-04T08:33:51;12.80;55.80
439;DHT22;206;48.782;9.252;2022-11-04T08:36:20;12.80;53.80
439;DHT22;206;48.782;9.252;2022-11-04T08:38:46;12.80;54.30
439;DHT22;206;48.782;9.252;2022-11-04T08:41:14;12.80;53.60
439;DHT22;206;48.782;9.252;2022-11-04T08:43:40;12.80;54.30
439;DHT22;206;48.782;9.252;2022-11-04T08:46:08;12.80;54.00
439;DHT22;206;48.782;9.252;2022-11-04T08:48:34;12.80;53.10
439;DHT22;206;48.782;9.252;2022-11-04T08:51:01;12.90;52.20
439;DHT22;206;48.782;9.252;2022-11-04T08:53:27;12.90;49.70
439;DHT22;206;48.782;9.252;2022-11-04T08:55:54;13.00;50.80
439;DHT22;206;48.782;9.252;2022-11-04T08:58:20;13.20;50.70
439;DHT22;206;48.782;9.252;2022-11-04T09:00:46;13.40;48.00
439;DHT22;206;48.782;9.252;2022-11-04T09:03:12;13.50;48.10
439;DHT22;206;48.782;9.252;2022-11-04T09:05:39;13.40;48.30
439;DHT22;206;48.782;9.252;2022-11-04T09:08:14;13.40;47.70
439;DHT22;206;48.782;9.252;2022-11-04T09:10:41;13.30;46.60
439;DHT22;206;48.782;9.252;2022-11-04T09:13:08;13.40;47.70
439;DHT22;206;48.782;9.252;2022-11-04T09:15:36;13.50;47.30
439;DHT22;206;48.782;9.252;2022-11-04T09:18:01;13.50;47.60
439;DHT22;206;48.782;9.252;2022-11-04T09:20:27;13.60;47.50
439;DHT22;206;48.782;9.252;2022-11-04T09:22:54;13.60;46.90
439;DHT22;206;48.782;9.252;2022-11-04T09:25:20;13.50;46.80
439;DHT22;206;48.782;9.252;2022-11-04T09:27:46;13.40;46.80
439;DHT22;206;48.782;9.252;2022-11-04T09:30:11;13.50;46.80
439;DHT22;206;48.782;9.252;2022-11-04T09:32:37;13.50;46.80
439;DHT22;206;48.782;9.252;2022-11-04T09:35:03;13.50;46.00
439;DHT22;206;48.782;9.252;2022-11-04T09:37:30;13.60;44.90
439;DHT22;206;48.782;9.252;2022-11-04T09:39:56;13.60;45.30
439;DHT22;206;48.782;9.252;2022-11-04T09:45:13;13.50;45.70
439;DHT22;206;48.782;9.252;2022-11-04T09:47:42;13.30;46.30
439;DHT22;206;48.782;9.252;2022-11-04T09:50:17;13.40;46.80
439;DHT22;206;48.782;9.252;2022-11-04T09:52:53;13.60;46.90
439;DHT22;206;48.782;9.252;2022-11-04T09:55:27;13.70;44.30
439;DHT22;206;48.782;9.252;2022-11-04T09:57:56;13.70;43.60
439;DHT22;206;48.782;9.252;2022-11-04T10:00:24;13.80;43.70
439;DHT22;206;48.782;9.252;2022-11-04T10:03:23;13.90;42.30
439;DHT22;206;48.782;9.252;2022-11-04T10:08:27;14.00;41.40
439;DHT22;206;48.782;9.252;2022-11-04T10:11:03;14.10;40.60
439;DHT22;206;48.782;9.252;2022-11-04T10:19:51;14.10;40.10
439;DHT22;206;48.782;9.252;2022-11-04T10:25:03;13.90;40.70
439;DHT22;206;48.782;9.252;2022-11-04T10:27:35;13.90;40.50
439;DHT22;206;48.782;9.252;2022-11-04T10:30:24;14.10;41.30
439;DHT22;206;48.782;9.252;2022-11-04T10:35:58;14.30;39.90
439;DHT22;206;48.782;9.252;2022-11-04T10:38:39;14.40;37.70
439;DHT22;206;48.782;9.252;2022-11-04T10:43:45;14.70;37.90
439;DHT22;206;48.782;9.252;2022-11-04T10:46:27;14.80;36.60
439;DHT22;206;48.782;9.252;2022-11-04T10:51:56;15.10;35.20
439;DHT22;206;48.782;9.252;2022-11-04T10:54:24;15.40;34.80
439;DHT22;206;48.782;9.252;2022-11-04T10:56:53;15.60;34.10
439;DHT22;206;48.782;9.252;2022-11-04T10:59:29;15.80;30.70
439;DHT22;206;48.782;9.252;2022-11-04T11:01:57;15.90;31.10
439;DHT22;206;48.782;9.252;2022-11-04T11:04:26;16.00;30.20
439;DHT22;206;48.782;9.252;2022-11-04T11:06:53;16.00;30.20
439;DHT22;206;48.782;9.252;2022-11-04T11:09:30;16.10;30.00
439;DHT22;206;48.782;9.252;2022-11-04T11:12:02;16.10;29.90
439;DHT22;206;48.782;9.252;2022-11-04T11:14:33;16.20;29.40
439;DHT22;206;48.782;9.252;2022-11-04T11:20:00;16.40;28.50
439;DHT22;206;48.782;9.252;2022-11-04T11:28:00;16.30;28.30
439;DHT22;206;48.782;9.252;2022-11-04T11:30:28;16.20;28.20
439;DHT22;206;48.782;9.252;2022-11-04T11:33:03;16.20;29.00
439;DHT22;206;48.782;9.252;2022-11-04T11:35:40;16.20;28.70
439;DHT22;206;48.782;9.252;2022-11-04T11:38:26;16.10;27.90
439;DHT22;206;48.782;9.252;2022-11-04T11:41:09;16.10;27.90
439;DHT22;206;48.782;9.252;2022-11-04T11:43:39;16.10;27.80
439;DHT22;206;48.782;9.252;2022-11-04T11:46:06;16.10;27.80
439;DHT22;206;48.782;9.252;2022-11-04T11:48:38;16.30;27.50
439;DHT22;206;48.782;9.252;2022-11-04T11:51:04;16.40;27.30
439;DHT22;206;48.782;9.252;2022-11-04T11:53:30;16.50;26.00
439;DHT22;206;48.782;9.252;2022-11-04T11:56:07;16.30;25.70
439;DHT22;206;48.782;9.252;2022-11-04T12:02:11;16.20;26.40
439;DHT22;206;48.782;9.252;2022-11-04T12:04:39;16.00;26.30
439;DHT22;206;48.782;9.252;2022-11-04T12:26:28;16.30;28.00
439;DHT22;206;48.782;9.252;2022-11-04T12:40:14;16.40;26.10
439;DHT22;206;48.782;9.252;2022-11-04T12:48:19;16.30;26.70
439;DHT22;206;48.782;9.252;2022-11-04T12:51:36;16.30;26.40
439;DHT22;206;48.782;9.252;2022-11-04T12:56:53;15.80;27.80
439;DHT22;206;48.782;9.252;2022-11-04T13:02:22;15.90;27.40
439;DHT22;206;48.782;9.252;2022-11-04T13:04:58;15.90;27.50
439;DHT22;206;48.782;9.252;2022-11-04T13:07:37;15.90;27.10
439;DHT22;206;48.782;9.252;2022-11-04T13:10:13;15.90;27.20
439;DHT22;206;48.782;9.252;2022-11-04T13:12:43;15.90;27.40
439;DHT22;206;48.782;9.252;2022-11-04T13:15:19;15.90;27.80
439;DHT22;206;48.782;9.252;2022-11-04T13:17:49;16.00;27.30
439;DHT22;206;48.782;9.252;2022-11-04T13:20:44;16.10;27.20
439;DHT22;206;48.782;9.252;2022-11-04T13:23:20;16.10;27.80
439;DHT22;206;48.782;9.252;2022-11-04T13:25:47;16.10;26.70
439;DHT22;206;48.782;9.252;2022-11-04T13:28:19;16.20;26.40
439;DHT22;206;48.782;9.252;2022-11-04T13:36:18;16.10;26.20
439;DHT22;206;48.782;9.252;2022-11-04T13:39:12;16.10;25.80
439;DHT22;206;48.782;9.252;2022-11-04T13:41:44;16.10;26.10
439;DHT22;206;48.782;9.252;2022-11-04T13:44:24;16.10;26.00
439;DHT22;206;48.782;9.252;2022-11-04T13:46:53;16.10;25.90
439;DHT22;206;48.782;9.252;2022-11-04T13:49:24;16.20;26.10
439;DHT22;206;48.782;9.252;2022-11-04T13:52:08;16.10;25.80
439;DHT22;206;48.782;9.252;2022-11-04T13:54:38;16.10;25.30
439;DHT22;206;48.782;9.252;2022-11-04T13:59:40;15.90;26.00
439;DHT22;206;48.782;9.252;2022-11-04T14:04:41;15.80;26.70
439;DHT22;206;48.782;9.252;2022-11-04T14:07:09;15.80;26.80
439;DHT22;206;48.782;9.252;2022-11-04T14:09:48;15.80;27.10
439;DHT22;206;48.782;9.252;2022-11-04T14:14:49;15.70;30.00
439;DHT22;206;48.782;9.252;2022-11-04T14:20:20;15.10;34.80
439;DHT22;206;48.782;9.252;2022-11-04T14:22:49;14.80;35.40
439;DHT22;206;48.782;9.252;2022-11-04T14:25:29;14.50;36.10
439;DHT22;206;48.782;9.252;2022-11-04T14:27:59;14.30;36.30
439;DHT22;206;48.782;9.252;2022-11-04T14:30:50;14.20;37.60
439;DHT22;206;48.782;9.252;2022-11-04T14:42:13;13.60;45.10
439;DHT22;206;48.782;9.252;2022-11-04T14:44:44;13.50;45.80
439;DHT22;206;48.782;9.252;2022-11-04T14:47:25;13.50;48.50
439;DHT22;206;48.782;9.252;2022-11-04T14:52:29;13.40;49.70
439;DHT22;206;48.782;9.252;2022-11-04T14:55:17;13.40;53.10
439;DHT22;206;48.782;9.252;2022-11-04T14:57:48;13.30;54.00
439;DHT22;206;48.782;9.252;2022-11-04T15:00:22;13.30;53.90
439;DHT22;206;48.782;9.252;2022-11-04T15:05:36;13.20;53.70
439;DHT22;206;48.782;9.252;2022-11-04T15:14:25;13.20;56.50
439;DHT22;206;48.782;9.252;2022-11-04T15:16:56;13.20;55.00
439;DHT22;206;48.782;9.252;2022-11-04T15:19:30;13.20;53.30
439;DHT22;206;48.782;9.252;2022-11-04T15:22:01;13.20;49.90
439;DHT22;206;48.782;9.252;2022-11-04T15:24:28;13.20;50.50
439;DHT22;206;48.782;9.252;2022-11-04T15:26:59;13.10;53.30
439;DHT22;206;48.782;9.252;2022-11-04T15:29:25;13.10;55.80
439;DHT22;206;48.782;9.252;2022-11-04T15:32:01;13.00;58.00
439;DHT22;206;48.782;9.252;2022-11-04T15:34:29;12.90;58.10
439;DHT22;206;48.782;9.252;2022-11-04T15:36:57;12.90;59.50
439;DHT22;206;48.782;9.252;2022-11-04T15:39:33;12.80;61.30
439;DHT22;206;48.782;9.252;2022-11-04T15:42:03;12.70;63.00
439;DHT22;206;48.782;9.252;2022-11-04T15:44:53;12.60;63.00
439;DHT22;206;48.782;9.252;2022-11-04T15:47:25;12.50;62.10
439;DHT22;206;48.782;9.252;2022-11-04T15:49:53;12.50;63.60
439;DHT22;206;48.782;9.252;2022-11-04T15:52:27;12.50;64.90
439;DHT22;206;48.782;9.252;2022-11-04T15:54:57;12.40;65.60
439;DHT22;206;48.782;9.252;2022-11-04T15:57:27;12.40;64.20
439;DHT22;206;48.782;9.252;2022-11-04T16:02:37;12.40;65.90
439;DHT22;206;48.782;9.252;2022-11-04T16:07:38;12.40;69.10
439;DHT22;206;48.782;9.252;2022-11-04T16:10:33;12.50;67.80
439;DHT22;206;48.782;9.252;2022-11-04T16:15:46;12.40;67.60
439;DHT22;206;48.782;9.252;2022-11-04T16:21:23;12.40;68.80
439;DHT22;206;48.782;9.252;2022-11-04T16:26:39;12.40;66.40
439;DHT22;206;48.782;9.252;2022-11-04T16:29:07;12.30;67.20
439;DHT22;206;48.782;9.252;2022-11-04T16:31:36;12.40;68.50
439;DHT22;206;48.782;9.252;2022-11-04T16:34:03;12.40;67.10
439;DHT22;206;48.782;9.252;2022-11-04T16:36:30;12.30;66.30
439;DHT22;206;48.782;9.252;2022-11-04T16:38:58;12.30;65.10
439;DHT22;206;48.782;9.252;2022-11-04T16:41:26;12.20;66.40
439;DHT22;206;48.782;9.252;2022-11-04T16:43:53;12.20;67.70
439;DHT22;206;48.782;9.252;2022-11-04T16:46:19;12.20;68.50
439;DHT22;206;48.782;9.252;2022-11-04T16:48:47;12.10;67.80
439;DHT22;206;48.782;9.252;2022-11-04T16:51:20;12.10;69.90
439;DHT22;206;48.782;9.252;2022-11-04T16:53:48;11.90;70.40
439;DHT22;206;48.782;9.252;2022-11-04T16:56:15;12.00;70.80
439;DHT22;206;48.782;9.252;2022-11-04T16:58:41;11.90;70.20
439;DHT22;206;48.782;9.252;2022-11-04T17:01:11;11.90;69.70
439;DHT22;206;48.782;9.252;2022-11-04T17:03:37;11.90;70.80
439;DHT22;206;48.782;9.252;2022-11-04T17:06:03;12.00;72.70
439;DHT22;206;48.782;9.252;2022-11-04T17:08:29;12.00;72.80
439;DHT22;206;48.782;9.252;2022-11-04T17:10:54;12.10;72.80
439;DHT22;206;48.782;9.252;2022-11-04T17:13:20;12.10;73.50
439;DHT22;206;48.782;9.252;2022-11-04T17:15:46;12.20;74.20
439;DHT22;206;48.782;9.252;2022-11-04T17:18:13;12.30;75.00
439;DHT22;206;48.782;9.252;2022-11-04T17:20:41;12.30;72.00
439;DHT22;206;48.782;9.252;2022-11-04T17:23:13;12.20;68.90
439;DHT22;206;48.782;9.252;2022-11-04T17:25:39;12.10;69.90
439;DHT22;206;48.782;9.252;2022-11-04T17:28:04;12.10;71.40
439;DHT22;206;48.782;9.252;2022-11-04T17:30:30;12.10;72.20
439;DHT22;206;48.782;9.252;2022-11-04T17:32:56;12.10;72.60
439;DHT22;206;48.782;9.252;2022-11-04T17:35:21;12.10;72.70
439;DHT22;206;48.782;9.252;2022-11-04T17:37:50;12.10;72.30
439;DHT22;206;48.782;9.252;2022-11-04T17:40:17;12.00;70.70
439;DHT22;206;48.782;9.252;2022-11-04T17:42:44;11.90;70.80
439;DHT22;206;48.782;9.252;2022-11-04T17:45:42;12.00;73.30
439;DHT22;206;48.782;9.252;2022-11-04T17:48:08;12.00;73.70
439;DHT22;206;48.782;9.252;2022-11-04T17:50:36;12.00;73.20
439;DHT22;206;48.782;9.252;2022-11-04T17:53:02;12.00;72.10
439;DHT22;206;48.782;9.252;2022-11-04T17:55:28;12.00;72.70
439;DHT22;206;48.782;9.252;2022-11-04T17:57:54;12.00;72.60
439;DHT22;206;48.782;9.252;2022-11-04T18:00:20;12.10;72.70
439;DHT22;206;48.782;9.252;2022-11-04T18:02:48;12.10;72.60
439;DHT22;206;48.782;9.252;2022-11-04T18:05:14;12.10;73.30
439;DHT22;206;48.782;9.252;2022-11-04T18:07:40;12.10;73.20
439;DHT22;206;48.782;9.252;2022-11-04T18:10:06;12.20;73.20
439;DHT22;206;48.782;9.252;2022-11-04T18:12:32;12.20;72.80
439;DHT22;206;48.782;9.252;2022-11-04T18:15:05;12.20;72.20
439;DHT22;206;48.782;9.252;2022-11-04T18:17:31;12.20;72.20
439;DHT22;206;48.782;9.252;2022-11-04T18:19:56;12.20;71.40
439;DHT22;206;48.782;9.252;2022-11-04T18:22:22;12.20;70.00
439;DHT22;206;48.782;9.252;2022-11-04T18:24:48;12.20;67.80
439;DHT22;206;48.782;9.252;2022-11-04T18:27:14;12.20;68.50
439;DHT22;206;48.782;9.252;2022-11-04T18:29:40;12.20;68.40
439;DHT22;206;48.782;9.252;2022-11-04T18:32:05;12.20;68.20
439;DHT22;206;48.782;9.252;2022-11-04T18:34:31;12.20;68.20
439;DHT22;206;48.782;9.252;2022-11-04T18:36:57;12.20;68.80
439;DHT22;206;48.782;9.252;2022-11-04T18:39:23;12.20;68.70
439;DHT22;206;48.782;9.252;2022-11-04T18:41:48;12.20;69.60
439;DHT22;206;48.782;9.252;2022-11-04T18:44:19;12.30;69.10
439;DHT22;206;48.782;9.252;2022-11-04T18:46:46;12.30;69.40
439;DHT22;206;48.782;9.252;2022-11-04T18:49:13;12.30;68.80
439;DHT22;206;48.782;9.252;2022-11-04T18:51:39;12.30;67.80
439;DHT22;206;48.782;9.252;2022-11-04T18:54:06;12.30;67.30
439;DHT22;206;48.782;9.252;2022-11-04T18:56:32;12.30;68.80
439;DHT22;206;48.782;9.252;2022-11-04T18:58:58;12.30;70.10
439;DHT22;206;48.782;9.252;2022-11-04T19:01:27;12.20;71.10
439;DHT22;206;48.782;9.252;2022-11-04T19:03:53;12.20;71.50
439;DHT22;206;48.782;9.252;2022-11-04T19:06:22;12.10;70.90
439;DHT22;206;48.782;9.252;2022-11-04T19:08:50;12.10;71.40
439;DHT22;206;48.782;9.252;2022-11-04T19:11:22;12.00;71.70
439;DHT22;206;48.782;9.252;2022-11-04T19:13:50;11.90;72.20
439;DHT22;206;48.782;9.252;2022-11-04T19:16:16;11.90;72.70
439;DHT22;206;48.782;9.252;2022-11-04T19:18:41;11.80;73.50
439;DHT22;206;48.782;9.252;2022-11-04T19:21:10;11.80;72.80
439;DHT22;206;48.782;9.252;2022-11-04T19:23:37;11.70;73.60